sensor_id;sensor_type;location;lat;lon;timestamp;temperature;humidity
1307;DHT22;646;48.696;9.114;2022-12-18T00:00:43;-10.90;99.90
1307;DHT22;646;48.696;9.114;2022-12-18T00:03:09;-10.50;99.90
1307;DHT22;646;48.696;9.114;2022-12-18T00:05:35;-10.90;99.90
1307;DHT22;646;48.696;9.114;2022-12-18T00:08:01;-10.40;99.90
1307;DHT22;646;48.696;9.114;2022-12-18T00:10:28;-10.80;99.90
1307;DHT22;646;48.696;9.114;2022-12-18T00:12:54;-11.10;99.90
1307;DHT22;646;48.696;9.114;2022-12-18T00:15:19;-10.40;99.90
1307;DHT22;646;48.696;9.114;2022-12-18T00:17:45;-10.20;99.90
1307;DHT22;646;48.696;9.114;2022-12-18T00:20:10;-10.30;99.90
1307;DHT22;646;48.696;9.114;2022-12-18T00:22:36;-10.50;99.90
1307;DHT22;646;48.696;9.114;2022-12-18T00:25:02;-10.10;99.90
1307;DHT22;646;48.696;9.114;2022-12-18T00:27:27;-10.30;99.90
1307;DHT22;646;48.696;9.114;2022-12-18T00:29:53;-10.30;99.90
1307;DHT22;646;48.696;9.114;2022-12-18T00:32:18;-10.40;99.90
1307;DHT22;646;48.696;9.114;2022-12-18T00:34:44;-10.40;99.90
1307;DHT22;646;48.696;9.114;2022-12-18T00:37:09;-10.60;99.90
1307;DHT22;646;48.696;9.114;2022-12-18T00:39:35;-10.70;99.90
1307;DHT22;646;48.696;9.114;2022-12-18T00:42:00;-10.60;99.90
1307;DHT22;646;48.696;9.114;2022-12-18T00:44:44;-10.50;99.90
1307;DHT22;646;48.696;9.114;2022-12-18T00:47:10;-10.60;99.90
1307;DHT22;646;48.696;9.114;2022-12-18T00:49:35;-10.60;99.90
1307;DHT22;646;48.696;9.114;2022-12-18T00:52:01;-10.40;99.90
1307;DHT22;646;48.696;9.114;2022-12-18T00:54:27;-10.80;99.90
1307;DHT22;646;48.696;9.114;2022-12-18T00:56:52;-10.40;99.90
1307;DHT22;646;48.696;9.114;2022-12-18T00:59:18;-10.70;99.90
1307;DHT22;646;48.696;9.114;2022-12-18T01:01:44;-10.40;99.90
1307;DHT22;646;48.696;9.114;2022-12-18T01:04:09;-10.50;99.90
1307;DHT22;646;48.696;9.114;2022-12-18T01:06:35;-10.80;99.90
1307;DHT22;646;48.696;9.114;2022-12-18T01:09:01;-10.60;99.90
1307;DHT22;646;48.696;9.114;2022-12-18T01:11:26;-10.60;99.90
1307;DHT22;646;48.696;9.114;2022-12-18T01:13:53;-10.70;99.90
1307;DHT22;646;48.696;9.114;2022-12-18T01:16:18;-10.80;99.90
1307;DHT22;646;48.696;9.114;2022-12-18T01:18:44;-11.00;99.90
1307;DHT22;646;48.696;9.114;2022-12-18T01:21:12;-10.90;99.90
1307;DHT22;646;48.696;9.114;2022-12-18T01:23:38;-10.80;99.90
1307;DHT22;646;48.696;9.114;2022-12-18T01:26:09;-10.80;99.90
1307;DHT22;646;48.696;9.114;2022-12-18T01:28:36;-11.50;99.90
1307;DHT22;646;48.696;9.114;2022-12-18T01:33:36;-10.90;99.90
1307;DHT22;646;48.696;9.114;2022-12-18T01:36:02;-11.00;99.90
1307;DHT22;646;48.696;9.114;2022-12-18T01:38:28;-10.80;99.90
1307;DHT22;646;48.696;9.114;2022-12-18T01:41:01;-10.80;99.90
1307;DHT22;646;48.696;9.114;2022-12-18T01:43:54;-10.90;99.90
1307;DHT22;646;48.696;9.114;2022-12-18T01:46:22;-10.80;99.90
1307;DHT22;646;48.696;9.114;2022-12-18T01:48:51;-11.40;99.90
1307;DHT22;646;48.696;9.114;2022-12-18T01:51:17;-10.70;99.90
1307;DHT22;646;48.696;9.114;2022-12-18T01:53:44;-10.70;99.90
1307;DHT22;646;48.696;9.114;2022-12-18T01:56:14;-10.60;99.90
1307;DHT22;646;48.696;9.114;2022-12-18T02:01:23;-10.40;99.90
1307;DHT22;646;48.696;9.114;2022-12-18T02:03:49;-10.70;99.90
1307;DHT22;646;48.696;9.114;2022-12-18T02:06:34;-10.30;99.90
1307;DHT22;646;48.696;9.114;2022-12-18T02:09:25;-10.50;99.90
1307;DHT22;646;48.696;9.114;2022-12-18T02:12:16;-10.10;99.90
1307;DHT22;646;48.696;9.114;2022-12-18T02:15:00;-10.10;99.90
1307;DHT22;646;48.696;9.114;2022-12-18T02:17:36;-10.20;99.90
1307;DHT22;646;48.696;9.114;2022-12-18T02:20:18;-10.30;99.90
1307;DHT22;646;48.696;9.114;2022-12-18T02:23:24;-10.20;99.90
1307;DHT22;646;48.696;9.114;2022-12-18T02:26:28;-10.00;99.90
1307;DHT22;646;48.696;9.114;2022-12-18T02:29:16;-10.00;99.90
1307;DHT22;646;48.696;9.114;2022-12-18T02:31:47;-10.00;99.90
1307;DHT22;646;48.696;9.114;2022-12-18T02:34:14;-9.90;99.90
1307;DHT22;646;48.696;9.114;2022-12-18T02:36:42;-10.30;99.90
1307;DHT22;646;48.696;9.114;2022-12-18T02:39:10;-10.20;99.90
1307;DHT22;646;48.696;9.114;2022-12-18T02:41:37;-10.00;99.90
1307;DHT22;646;48.696;9.114;2022-12-18T02:44:08;-10.30;99.90
1307;DHT22;646;48.696;9.114;2022-12-18T02:46:40;-10.30;99.90
1307;DHT22;646;48.696;9.114;2022-12-18T02:49:25;-10.10;99.90
1307;DHT22;646;48.696;9.114;2022-12-18T02:54:48;-10.10;99.90
1307;DHT22;646;48.696;9.114;2022-12-18T02:57:41;-10.20;99.90
1307;DHT22;646;48.696;9.114;2022-12-18T03:05:22;-10.40;99.90
1307;DHT22;646;48.696;9.114;2022-12-18T03:08:07;-10.40;99.90
1307;DHT22;646;48.696;9.114;2022-12-18T03:10:38;-10.50;99.90
1307;DHT22;646;48.696;9.114;2022-12-18T03:13:09;-10.50;99.90
1307;DHT22;646;48.696;9.114;2022-12-18T03:15:51;-10.30;99.90
1307;DHT22;646;48.696;9.114;2022-12-18T03:18:25;-10.10;99.90
1307;DHT22;646;48.696;9.114;2022-12-18T03:20:53;-10.00;99.90
1307;DHT22;646;48.696;9.114;2022-12-18T03:23:23;-10.30;99.90
1307;DHT22;646;48.696;9.114;2022-12-18T03:25:54;-10.10;99.90
1307;DHT22;646;48.696;9.114;2022-12-18T03:28:22;-10.20;99.90
1307;DHT22;646;48.696;9.114;2022-12-18T03:30:53;-10.00;99.90
1307;DHT22;646;48.696;9.114;2022-12-18T03:33:46;-10.40;99.90
1307;DHT22;646;48.696;9.114;2022-12-18T03:36:12;-10.00;99.90
1307;DHT22;646;48.696;9.114;2022-12-18T03:38:38;-10.20;99.90
1307;DHT22;646;48.696;9.114;2022-12-18T03:44:14;-10.00;99.90
1307;DHT22;646;48.696;9.114;2022-12-18T03:49:27;-10.00;99.90
1307;DHT22;646;48.696;9.114;2022-12-18T03:52:26;-9.90;99.90
1307;DHT22;646;48.696;9.114;2022-12-18T03:54:55;-9.80;99.90
1307;DHT22;646;48.696;9.114;2022-12-18T03:57:24;-9.80;99.90
1307;DHT22;646;48.696;9.114;2022-12-18T03:59:56;-9.90;99.90
1307;DHT22;646;48.696;9.114;2022-12-18T04:02:23;-9.90;99.90
1307;DHT22;646;48.696;9.114;2022-12-18T04:04:52;-10.00;99.90
1307;DHT22;646;48.696;9.114;2022-12-18T04:07:20;-10.00;99.90
1307;DHT22;646;48.696;9.114;2022-12-18T04:09:46;-10.00;99.90
1307;DHT22;646;48.696;9.114;2022-12-18T04:12:13;-10.00;99.90
1307;DHT22;646;48.696;9.114;2022-12-18T04:14:39;-10.00;99.90
1307;DHT22;646;48.696;9.114;2022-12-18T04:17:04;-10.30;99.90
1307;DHT22;646;48.696;9.114;2022-12-18T04:19:30;-10.10;99.90
1307;DHT22;646;48.696;9.114;2022-12-18T04:21:55;-10.00;99.90
1307;DHT22;646;48.696;9.114;2022-12-18T04:24:21;-10.20;99.90
1307;DHT22;646;48.696;9.114;2022-12-18T04:26:46;-10.50;99.90
1307;DHT22;646;48.696;9.114;2022-12-18T04:29:12;-10.10;99.90
1307;DHT22;646;48.696;9.114;2022-12-18T04:31:37;-10.50;99.90
1307;DHT22;646;48.696;9.114;2022-12-18T04:34:03;-10.30;99.90
1307;DHT22;646;48.696;9.114;2022-12-18T04:36:29;-10.20;99.90
1307;DHT22;646;48.696;9.114;2022-12-18T04:38:55;-10.30;99.90
1307;DHT22;646;48.696;9.114;2022-12-18T04:41:21;-10.30;99.90
1307;DHT22;646;48.696;9.114;2022-12-18T04:43:46;-10.70;99.90
1307;DHT22;646;48.696;9.114;2022-12-18T04:46:12;-10.30;99.90
1307;DHT22;646;48.696;9.114;2022-12-18T04:48:37;-10.20;99.90
1307;DHT22;646;48.696;9.114;2022-12-18T04:51:05;-10.40;99.90
1307;DHT22;646;48.696;9.114;2022-12-18T04:53:30;-10.20;99.90
1307;DHT22;646;48.696;9.114;2022-12-18T04:56:07;-10.40;99.90
1307;DHT22;646;48.696;9.114;2022-12-18T04:58:34;-10.30;99.90
1307;DHT22;646;48.696;9.114;2022-12-18T05:00:59;-10.30;99.90
1307;DHT22;646;48.696;9.114;2022-12-18T05:03:25;-10.30;99.90
1307;DHT22;646;48.696;9.114;2022-12-18T05:05:51;-10.30;99.90
1307;DHT22;646;48.696;9.114;2022-12-18T05:08:17;-10.20;99.90
1307;DHT22;646;48.696;9.114;2022-12-18T05:10:42;-10.30;99.90
1307;DHT22;646;48.696;9.114;2022-12-18T05:13:08;-10.20;99.90
1307;DHT22;646;48.696;9.114;2022-12-18T05:15:33;-10.30;99.90
1307;DHT22;646;48.696;9.114;2022-12-18T05:17:59;-10.30;99.90
1307;DHT22;646;48.696;9.114;2022-12-18T05:20:26;-10.40;99.90
1307;DHT22;646;48.696;9.114;2022-12-18T05:22:52;-10.40;99.90
1307;DHT22;646;48.696;9.114;2022-12-18T05:25:18;-11.00;99.90
1307;DHT22;646;48.696;9.114;2022-12-18T05:27:44;-10.50;99.90
1307;DHT22;646;48.696;9.114;2022-12-18T05:30:11;-10.40;99.90
1307;DHT22;646;48.696;9.114;2022-12-18T05:32:37;-10.50;99.90
1307;DHT22;646;48.696;9.114;2022-12-18T05:35:04;-10.60;99.90
1307;DHT22;646;48.696;9.114;2022-12-18T05:37:30;-10.30;99.90
1307;DHT22;646;48.696;9.114;2022-12-18T05:39:55;-10.20;99.90
1307;DHT22;646;48.696;9.114;2022-12-18T05:42:21;-10.30;99.90
1307;DHT22;646;48.696;9.114;2022-12-18T05:44:46;-10.20;99.90
1307;DHT22;646;48.696;9.114;2022-12-18T05:47:12;-10.20;99.90
1307;DHT22;646;48.696;9.114;2022-12-18T05:49:38;-10.40;99.90
1307;DHT22;646;48.696;9.114;2022-12-18T05:52:03;-10.40;99.90
1307;DHT22;646;48.696;9.114;2022-12-18T05:54:29;-10.30;99.90
1307;DHT22;646;48.696;9.114;2022-12-18T05:56:55;-10.20;99.90
1307;DHT22;646;48.696;9.114;2022-12-18T05:59:20;-10.50;99.90
1307;DHT22;646;48.696;9.114;2022-12-18T06:01:46;-10.40;99.90
1307;DHT22;646;48.696;9.114;2022-12-18T06:04:11;-10.50;99.90
1307;DHT22;646;48.696;9.114;2022-12-18T06:06:37;-10.50;99.90
1307;DHT22;646;48.696;9.114;2022-12-18T06:09:03;-10.50;99.90
1307;DHT22;646;48.696;9.114;2022-12-18T06:11:34;-11.20;99.90
1307;DHT22;646;48.696;9.114;2022-12-18T06:14:00;-10.50;99.90
1307;DHT22;646;48.696;9.114;2022-12-18T06:16:27;-10.70;99.90
1307;DHT22;646;48.696;9.114;2022-12-18T06:18:53;-10.60;99.90
1307;DHT22;646;48.696;9.114;2022-12-18T06:21:20;-10.60;99.90
1307;DHT22;646;48.696;9.114;2022-12-18T06:23:46;-10.60;99.90
1307;DHT22;646;48.696;9.114;2022-12-18T06:26:13;-10.70;99.90
1307;DHT22;646;48.696;9.114;2022-12-18T06:28:39;-10.70;99.90
1307;DHT22;646;48.696;9.114;2022-12-18T06:31:04;-11.60;99.90
1307;DHT22;646;48.696;9.114;2022-12-18T06:33:30;-10.80;99.90
1307;DHT22;646;48.696;9.114;2022-12-18T06:36:01;-10.70;99.90
1307;DHT22;646;48.696;9.114;2022-12-18T06:38:27;-10.90;99.90
1307;DHT22;646;48.696;9.114;2022-12-18T06:40:52;-10.90;99.90
1307;DHT22;646;48.696;9.114;2022-12-18T06:43:18;-11.50;99.90
1307;DHT22;646;48.696;9.114;2022-12-18T06:45:43;-11.00;99.90
1307;DHT22;646;48.696;9.114;2022-12-18T06:48:09;-11.50;99.90
1307;DHT22;646;48.696;9.114;2022-12-18T06:50:34;-11.00;99.90
1307;DHT22;646;48.696;9.114;2022-12-18T06:53:00;-11.10;99.90
1307;DHT22;646;48.696;9.114;2022-12-18T06:55:25;-10.90;99.90
1307;DHT22;646;48.696;9.114;2022-12-18T06:57:51;-10.80;99.90
1307;DHT22;646;48.696;9.114;2022-12-18T07:00:17;-10.80;99.90
1307;DHT22;646;48.696;9.114;2022-12-18T07:02:42;-10.80;99.90
1307;DHT22;646;48.696;9.114;2022-12-18T07:05:08;-10.80;99.90
1307;DHT22;646;48.696;9.114;2022-12-18T07:07:34;-10.90;99.90
1307;DHT22;646;48.696;9.114;2022-12-18T07:10:00;-10.90;99.90
1307;DHT22;646;48.696;9.114;2022-12-18T07:12:27;-11.10;99.90
1307;DHT22;646;48.696;9.114;2022-12-18T07:14:52;-10.90;99.90
1307;DHT22;646;48.696;9.114;2022-12-18T07:17:18;-10.80;99.90
1307;DHT22;646;48.696;9.114;2022-12-18T07:19:43;-10.90;99.90
1307;DHT22;646;48.696;9.114;2022-12-18T07:22:09;-11.10;99.90
1307;DHT22;646;48.696;9.114;2022-12-18T07:24:34;-11.10;99.90
1307;DHT22;646;48.696;9.114;2022-12-18T07:27:00;-10.80;99.90
1307;DHT22;646;48.696;9.114;2022-12-18T07:29:25;-10.80;99.90
1307;DHT22;646;48.696;9.114;2022-12-18T07:31:51;-10.80;99.90
1307;DHT22;646;48.696;9.114;2022-12-18T07:34:16;-11.20;99.90
1307;DHT22;646;48.696;9.114;2022-12-18T07:36:42;-10.60;99.90
1307;DHT22;646;48.696;9.114;2022-12-18T07:39:07;-10.60;99.90
1307;DHT22;646;48.696;9.114;2022-12-18T07:41:33;-11.00;99.90
1307;DHT22;646;48.696;9.114;2022-12-18T07:43:59;-10.30;99.90
1307;DHT22;646;48.696;9.114;2022-12-18T07:46:24;-10.20;99.90
1307;DHT22;646;48.696;9.114;2022-12-18T07:48:50;-10.80;99.90
1307;DHT22;646;48.696;9.114;2022-12-18T07:51:16;-10.00;99.90
1307;DHT22;646;48.696;9.114;2022-12-18T07:53:41;-10.00;99.90
1307;DHT22;646;48.696;9.114;2022-12-18T07:56:09;-10.00;99.90
1307;DHT22;646;48.696;9.114;2022-12-18T07:58:36;-10.00;99.90
1307;DHT22;646;48.696;9.114;2022-12-18T08:01:09;-9.90;99.90
1307;DHT22;646;48.696;9.114;2022-12-18T08:03:36;-9.90;99.90
1307;DHT22;646;48.696;9.114;2022-12-18T08:06:06;-9.90;99.90
1307;DHT22;646;48.696;9.114;2022-12-18T08:08:32;-10.00;99.90
1307;DHT22;646;48.696;9.114;2022-12-18T08:10:58;-10.10;99.90
1307;DHT22;646;48.696;9.114;2022-12-18T08:13:25;-9.90;99.90
1307;DHT22;646;48.696;9.114;2022-12-18T08:18:23;-9.80;99.90
1307;DHT22;646;48.696;9.114;2022-12-18T08:20:49;-9.70;99.90
1307;DHT22;646;48.696;9.114;2022-12-18T08:23:14;-9.60;99.90
1307;DHT22;646;48.696;9.114;2022-12-18T08:25:40;-9.60;99.90
1307;DHT22;646;48.696;9.114;2022-12-18T08:28:05;-9.50;99.90
1307;DHT22;646;48.696;9.114;2022-12-18T08:30:31;-9.60;99.90
1307;DHT22;646;48.696;9.114;2022-12-18T08:32:56;-9.30;99.90
1307;DHT22;646;48.696;9.114;2022-12-18T08:35:22;-9.30;99.90
1307;DHT22;646;48.696;9.114;2022-12-18T08:37:47;-9.10;99.90
1307;DHT22;646;48.696;9.114;2022-12-18T08:40:13;-9.20;99.90
1307;DHT22;646;48.696;9.114;2022-12-18T08:42:39;-9.60;99.90
1307;DHT22;646;48.696;9.114;2022-12-18T08:45:30;-8.80;99.90
1307;DHT22;646;48.696;9.114;2022-12-18T08:47:56;-8.80;99.90
1307;DHT22;646;48.696;9.114;2022-12-18T08:50:21;-8.60;99.90
1307;DHT22;646;48.696;9.114;2022-12-18T08:52:47;-8.60;99.90
1307;DHT22;646;48.696;9.114;2022-12-18T08:55:12;-8.50;99.90
1307;DHT22;646;48.696;9.114;2022-12-18T08:57:38;-8.40;99.90
1307;DHT22;646;48.696;9.114;2022-12-18T09:00:04;-8.10;99.90
1307;DHT22;646;48.696;9.114;2022-12-18T09:02:30;-6.50;99.90
1307;DHT22;646;48.696;9.114;2022-12-18T09:04:56;-5.40;99.90
1307;DHT22;646;48.696;9.114;2022-12-18T09:07:21;-4.70;99.90
1307;DHT22;646;48.696;9.114;2022-12-18T09:09:47;-4.10;99.90
1307;DHT22;646;48.696;9.114;2022-12-18T09:12:12;-3.20;99.90
1307;DHT22;646;48.696;9.114;2022-12-18T09:14:38;-2.60;99.90
1307;DHT22;646;48.696;9.114;2022-12-18T09:17:03;-2.00;99.90
1307;DHT22;646;48.696;9.114;2022-12-18T09:19:29;-1.30;99.90
1307;DHT22;646;48.696;9.114;2022-12-18T09:21:54;-0.20;99.90
1307;DHT22;646;48.696;9.114;2022-12-18T09:24:20;1.30;99.90
1307;DHT22;646;48.696;9.114;2022-12-18T09:26:45;2.60;99.90
1307;DHT22;646;48.696;9.114;2022-12-18T09:29:11;3.90;99.90
1307;DHT22;646;48.696;9.114;2022-12-18T09:31:36;5.20;97.70
1307;DHT22;646;48.696;9.114;2022-12-18T09:34:03;6.10;93.40
1307;DHT22;646;48.696;9.114;2022-12-18T09:36:28;6.70;90.70
1307;DHT22;646;48.696;9.114;2022-12-18T09:38:54;8.00;84.80
1307;DHT22;646;48.696;9.114;2022-12-18T09:41:38;8.60;78.30
1307;DHT22;646;48.696;9.114;2022-12-18T09:44:29;9.20;73.20
1307;DHT22;646;48.696;9.114;2022-12-18T09:50:06;10.70;65.80
1307;DHT22;646;48.696;9.114;2022-12-18T09:52:44;11.50;62.90
1307;DHT22;646;48.696;9.114;2022-12-18T09:55:11;11.50;58.50
1307;DHT22;646;48.696;9.114;2022-12-18T09:57:47;12.60;58.00
1307;DHT22;646;48.696;9.114;2022-12-18T10:00:22;12.40;56.50
1307;DHT22;646;48.696;9.114;2022-12-18T10:02:50;13.30;55.90
1307;DHT22;646;48.696;9.114;2022-12-18T10:05:37;13.40;54.20
1307;DHT22;646;48.696;9.114;2022-12-18T10:10:49;13.80;51.90
1307;DHT22;646;48.696;9.114;2022-12-18T10:13:26;13.90;51.30
1307;DHT22;646;48.696;9.114;2022-12-18T10:16:35;14.40;52.50
1307;DHT22;646;48.696;9.114;2022-12-18T10:19:22;15.00;54.30
1307;DHT22;646;48.696;9.114;2022-12-18T10:22:02;15.90;51.40
1307;DHT22;646;48.696;9.114;2022-12-18T10:25:06;16.60;49.60
1307;DHT22;646;48.696;9.114;2022-12-18T10:27:35;16.90;46.40
1307;DHT22;646;48.696;9.114;2022-12-18T10:30:04;17.00;48.50
1307;DHT22;646;48.696;9.114;2022-12-18T10:32:30;17.60;48.60
1307;DHT22;646;48.696;9.114;2022-12-18T10:34:57;17.40;45.30
1307;DHT22;646;48.696;9.114;2022-12-18T10:37:25;17.80;46.10
1307;DHT22;646;48.696;9.114;2022-12-18T10:40:11;18.10;44.20
1307;DHT22;646;48.696;9.114;2022-12-18T10:42:37;18.40;42.50
1307;DHT22;646;48.696;9.114;2022-12-18T10:45:21;19.20;42.10
1307;DHT22;646;48.696;9.114;2022-12-18T10:47:48;19.10;40.30
1307;DHT22;646;48.696;9.114;2022-12-18T10:53:01;18.90;42.40
1307;DHT22;646;48.696;9.114;2022-12-18T10:58:34;18.00;39.40
1307;DHT22;646;48.696;9.114;2022-12-18T11:01:16;18.20;41.90
1307;DHT22;646;48.696;9.114;2022-12-18T11:06:22;17.80;41.90
1307;DHT22;646;48.696;9.114;2022-12-18T11:09:21;18.20;41.70
1307;DHT22;646;48.696;9.114;2022-12-18T11:11:51;18.10;39.30
1307;DHT22;646;48.696;9.114;2022-12-18T11:16:52;18.30;40.40
1307;DHT22;646;48.696;9.114;2022-12-18T11:19:27;17.70;41.90
1307;DHT22;646;48.696;9.114;2022-12-18T11:21:53;18.40;38.70
1307;DHT22;646;48.696;9.114;2022-12-18T11:24:26;18.90;39.00
1307;DHT22;646;48.696;9.114;2022-12-18T11:26:54;19.00;39.50
1307;DHT22;646;48.696;9.114;2022-12-18T11:29:27;18.70;40.80
1307;DHT22;646;48.696;9.114;2022-12-18T11:35:21;19.70;40.70
1307;DHT22;646;48.696;9.114;2022-12-18T11:37:59;20.00;39.30
1307;DHT22;646;48.696;9.114;2022-12-18T11:40:36;19.60;37.70
1307;DHT22;646;48.696;9.114;2022-12-18T11:43:20;19.90;38.70
1307;DHT22;646;48.696;9.114;2022-12-18T11:46:07;19.30;36.20
1307;DHT22;646;48.696;9.114;2022-12-18T11:49:13;19.00;37.40
1307;DHT22;646;48.696;9.114;2022-12-18T11:51:50;19.00;36.80
1307;DHT22;646;48.696;9.114;2022-12-18T11:54:17;18.30;38.70
1307;DHT22;646;48.696;9.114;2022-12-18T11:57:04;18.50;38.60
1307;DHT22;646;48.696;9.114;2022-12-18T12:08:04;17.70;38.10
1307;DHT22;646;48.696;9.114;2022-12-18T12:16:29;15.50;38.40
1307;DHT22;646;48.696;9.114;2022-12-18T12:19:15;14.80;40.00
1307;DHT22;646;48.696;9.114;2022-12-18T12:22:03;13.80;40.30
1307;DHT22;646;48.696;9.114;2022-12-18T12:28:28;12.90;42.00
1307;DHT22;646;48.696;9.114;2022-12-18T12:30:39;12.50;43.70
1307;DHT22;646;48.696;9.114;2022-12-18T12:36:17;11.60;44.90
1307;DHT22;646;48.696;9.114;2022-12-18T12:38:50;10.90;44.80
1307;DHT22;646;48.696;9.114;2022-12-18T12:41:24;10.70;45.10
1307;DHT22;646;48.696;9.114;2022-12-18T12:44:32;10.30;46.30
1307;DHT22;646;48.696;9.114;2022-12-18T12:47:04;9.70;47.60
1307;DHT22;646;48.696;9.114;2022-12-18T12:49:33;9.30;47.10
1307;DHT22;646;48.696;9.114;2022-12-18T12:54:48;8.60;49.00
1307;DHT22;646;48.696;9.114;2022-12-18T12:57:20;8.20;49.20
1307;DHT22;646;48.696;9.114;2022-12-18T13:00:09;8.10;51.10
1307;DHT22;646;48.696;9.114;2022-12-18T13:02:42;8.00;52.40
1307;DHT22;646;48.696;9.114;2022-12-18T13:05:31;7.80;51.50
1307;DHT22;646;48.696;9.114;2022-12-18T13:08:06;7.40;52.80
1307;DHT22;646;48.696;9.114;2022-12-18T13:10:42;8.10;54.10
1307;DHT22;646;48.696;9.114;2022-12-18T13:13:15;7.90;54.50
1307;DHT22;646;48.696;9.114;2022-12-18T13:15:50;8.20;54.00
1307;DHT22;646;48.696;9.114;2022-12-18T13:18:28;8.50;54.10
1307;DHT22;646;48.696;9.114;2022-12-18T13:23:27;7.80;49.60
1307;DHT22;646;48.696;9.114;2022-12-18T13:25:58;8.00;50.80
1307;DHT22;646;48.696;9.114;2022-12-18T13:31:02;7.10;49.70
1307;DHT22;646;48.696;9.114;2022-12-18T13:33:37;6.30;50.00
1307;DHT22;646;48.696;9.114;2022-12-18T13:41:45;5.10;53.80
1307;DHT22;646;48.696;9.114;2022-12-18T13:46:44;4.30;55.70
1307;DHT22;646;48.696;9.114;2022-12-18T13:51:42;3.60;56.60
1307;DHT22;646;48.696;9.114;2022-12-18T13:56:45;4.20;58.50
1307;DHT22;646;48.696;9.114;2022-12-18T14:01:46;4.30;58.60
1307;DHT22;646;48.696;9.114;2022-12-18T14:04:19;4.30;58.40
1307;DHT22;646;48.696;9.114;2022-12-18T14:06:46;4.40;58.50
1307;DHT22;646;48.696;9.114;2022-12-18T14:09:24;4.10;57.20
1307;DHT22;646;48.696;9.114;2022-12-18T14:11:50;3.90;57.70
1307;DHT22;646;48.696;9.114;2022-12-18T14:14:19;3.50;57.30
1307;DHT22;646;48.696;9.114;2022-12-18T14:16:46;3.40;58.30
1307;DHT22;646;48.696;9.114;2022-12-18T14:19:14;3.20;58.90
1307;DHT22;646;48.696;9.114;2022-12-18T14:21:48;3.10;59.60
1307;DHT22;646;48.696;9.114;2022-12-18T14:24:18;2.90;59.80
1307;DHT22;646;48.696;9.114;2022-12-18T14:26:45;2.40;59.20
1307;DHT22;646;48.696;9.114;2022-12-18T14:29:25;2.90;60.90
1307;DHT22;646;48.696;9.114;2022-12-18T14:32:05;2.80;61.10
1307;DHT22;646;48.696;9.114;2022-12-18T14:34:31;2.30;60.00
1307;DHT22;646;48.696;9.114;2022-12-18T14:36:57;2.10;60.10
1307;DHT22;646;48.696;9.114;2022-12-18T14:39:22;1.90;60.00
1307;DHT22;646;48.696;9.114;2022-12-18T14:41:50;1.80;60.30
1307;DHT22;646;48.696;9.114;2022-12-18T14:44:16;1.40;61.50
1307;DHT22;646;48.696;9.114;2022-12-18T14:46:46;1.00;61.80
1307;DHT22;646;48.696;9.114;2022-12-18T14:49:24;1.00;63.60
1307;DHT22;646;48.696;9.114;2022-12-18T14:52:03;0.50;64.50
1307;DHT22;646;48.696;9.114;2022-12-18T14:54:31;0.30;66.00
1307;DHT22;646;48.696;9.114;2022-12-18T14:57:21;0.00;65.10
1307;DHT22;646;48.696;9.114;2022-12-18T14:59:47;-0.40;67.20
1307;DHT22;646;48.696;9.114;2022-12-18T15:02:18;-0.60;66.90
1307;DHT22;646;48.696;9.114;2022-12-18T15:04:45;-0.80;69.10
1307;DHT22;646;48.696;9.114;2022-12-18T15:09:37;-1.20;69.60
1307;DHT22;646;48.696;9.114;2022-12-18T15:12:04;-1.40;70.40
1307;DHT22;646;48.696;9.114;2022-12-18T15:17:02;-1.80;72.10
1307;DHT22;646;48.696;9.114;2022-12-18T15:19:40;-1.90;73.90
1307;DHT22;646;48.696;9.114;2022-12-18T15:22:25;-1.70;75.00
1307;DHT22;646;48.696;9.114;2022-12-18T15:24:52;-2.00;76.10
1307;DHT22;646;48.696;9.114;2022-12-18T15:27:32;-2.20;76.80
1307;DHT22;646;48.696;9.114;2022-12-18T15:30:19;-2.10;78.20
1307;DHT22;646;48.696;9.114;2022-12-18T15:32:46;-2.00;79.90
1307;DHT22;646;48.696;9.114;2022-12-18T15:35:21;-2.30;80.60
1307;DHT22;646;48.696;9.114;2022-12-18T15:37:48;-2.30;81.40
1307;DHT22;646;48.696;9.114;2022-12-18T15:40:19;-2.40;82.00
1307;DHT22;646;48.696;9.114;2022-12-18T15:42:46;-2.30;82.50
1307;DHT22;646;48.696;9.114;2022-12-18T15:45:31;-2.40;82.90
1307;DHT22;646;48.696;9.114;2022-12-18T15:47:56;-2.40;82.80
1307;DHT22;646;48.696;9.114;2022-12-18T15:50:22;-2.50;83.30
1307;DHT22;646;48.696;9.114;2022-12-18T15:52:51;-2.50;85.40
1307;DHT22;646;48.696;9.114;2022-12-18T15:55:22;-2.80;86.60
1307;DHT22;646;48.696;9.114;2022-12-18T15:58:07;-2.90;87.50
1307;DHT22;646;48.696;9.114;2022-12-18T16:00:35;-2.80;88.50
1307;DHT22;646;48.696;9.114;2022-12-18T16:03:01;-3.00;89.50
1307;DHT22;646;48.696;9.114;2022-12-18T16:05:29;-2.90;90.20
1307;DHT22;646;48.696;9.114;2022-12-18T16:07:54;-3.10;90.00
1307;DHT22;646;48.696;9.114;2022-12-18T16:10:20;-3.10;90.20
1307;DHT22;646;48.696;9.114;2022-12-18T16:12:46;-3.70;90.80
1307;DHT22;646;48.696;9.114;2022-12-18T16:15:14;-3.40;91.70
1307;DHT22;646;48.696;9.114;2022-12-18T16:17:42;-3.30;92.50
1307;DHT22;646;48.696;9.114;2022-12-18T16:20:18;-3.40;93.20
1307;DHT22;646;48.696;9.114;2022-12-18T16:22:45;-3.70;93.90
1307;DHT22;646;48.696;9.114;2022-12-18T16:25:19;-3.10;94.70
1307;DHT22;646;48.696;9.114;2022-12-18T16:27:44;-3.30;95.20
1307;DHT22;646;48.696;9.114;2022-12-18T16:30:15;-3.50;94.80
1307;DHT22;646;48.696;9.114;2022-12-18T16:32:41;-3.30;96.00
1307;DHT22;646;48.696;9.114;2022-12-18T16:35:09;-3.20;96.10
1307;DHT22;646;48.696;9.114;2022-12-18T16:37:35;-3.30;96.50
1307;DHT22;646;48.696;9.114;2022-12-18T16:40:00;-3.00;97.00
1307;DHT22;646;48.696;9.114;2022-12-18T16:42:26;-3.40;97.00
1307;DHT22;646;48.696;9.114;2022-12-18T16:44:52;-3.30;96.60
1307;DHT22;646;48.696;9.114;2022-12-18T16:47:18;-3.20;96.50
1307;DHT22;646;48.696;9.114;2022-12-18T16:49:43;-3.40;97.30
1307;DHT22;646;48.696;9.114;2022-12-18T16:52:15;-3.40;97.50
1307;DHT22;646;48.696;9.114;2022-12-18T16:54:41;-3.00;97.10
1307;DHT22;646;48.696;9.114;2022-12-18T16:57:12;-3.50;97.10
1307;DHT22;646;48.696;9.114;2022-12-18T16:59:37;-3.30;98.00
1307;DHT22;646;48.696;9.114;2022-12-18T17:02:05;-3.40;97.50
1307;DHT22;646;48.696;9.114;2022-12-18T17:04:30;-3.20;98.50
1307;DHT22;646;48.696;9.114;2022-12-18T17:06:56;-3.30;98.80
1307;DHT22;646;48.696;9.114;2022-12-18T17:09:22;-3.20;98.70
1307;DHT22;646;48.696;9.114;2022-12-18T17:11:50;-3.20;99.70
1307;DHT22;646;48.696;9.114;2022-12-18T17:14:19;-3.50;99.90
1307;DHT22;646;48.696;9.114;2022-12-18T17:16:45;-2.90;99.90
1307;DHT22;646;48.696;9.114;2022-12-18T17:19:12;-2.70;99.90
1307;DHT22;646;48.696;9.114;2022-12-18T17:21:37;-3.00;99.90
1307;DHT22;646;48.696;9.114;2022-12-18T17:24:03;-2.90;99.70
1307;DHT22;646;48.696;9.114;2022-12-18T17:26:29;-2.90;99.90
1307;DHT22;646;48.696;9.114;2022-12-18T17:28:58;-2.80;99.90
1307;DHT22;646;48.696;9.114;2022-12-18T17:31:25;-2.80;99.90
1307;DHT22;646;48.696;9.114;2022-12-18T17:33:51;-2.80;99.90
1307;DHT22;646;48.696;9.114;2022-12-18T17:36:20;-2.80;99.90
1307;DHT22;646;48.696;9.114;2022-12-18T17:38:57;-2.50;99.90
1307;DHT22;646;48.696;9.114;2022-12-18T17:41:23;-2.20;99.90
1307;DHT22;646;48.696;9.114;2022-12-18T17:43:54;-2.40;99.90
1307;DHT22;646;48.696;9.114;2022-12-18T17:46:20;-2.30;99.90
1307;DHT22;646;48.696;9.114;2022-12-18T17:48:46;-2.80;99.90
1307;DHT22;646;48.696;9.114;2022-12-18T17:51:12;-2.90;99.90
1307;DHT22;646;48.696;9.114;2022-12-18T17:53:38;-2.60;99.90
1307;DHT22;646;48.696;9.114;2022-12-18T17:56:05;-2.80;99.90
1307;DHT22;646;48.696;9.114;2022-12-18T17:58:32;-2.40;99.90
1307;DHT22;646;48.696;9.114;2022-12-18T18:00:58;-2.30;99.90